sensor_id;sensor_type;location;lat;lon;timestamp;P1;durP1;ratioP1;P2;durP2;ratioP2
16998;SDS011;10211;49.476;11.010;2023-03-01T00:01:06;15.27;;;8.33;;
16998;SDS011;10211;49.476;11.010;2023-03-01T00:03:34;19.40;;;9.73;;
16998;SDS011;10211;49.476;11.010;2023-03-01T00:06:01;14.20;;;9.43;;
16998;SDS011;10211;49.476;11.010;2023-03-01T00:08:29;16.03;;;9.43;;
16998;SDS011;10211;49.476;11.010;2023-03-01T00:11:03;16.70;;;10.27;;
16998;SDS011;10211;49.476;11.010;2023-03-01T00:13:31;18.90;;;9.63;;
16998;SDS011;10211;49.476;11.010;2023-03-01T00:15:58;14.53;;;8.83;;
16998;SDS011;10211;49.476;11.010;2023-03-01T00:18:27;17.10;;;9.63;;
16998;SDS011;10211;49.476;11.010;2023-03-01T00:20:54;17.37;;;9.43;;
16998;SDS011;10211;49.476;11.010;2023-03-01T00:23:22;15.10;;;9.87;;
16998;SDS011;10211;49.476;11.010;2023-03-01T00:25:49;14.10;;;9.00;;
16998;SDS011;10211;49.476;11.010;2023-03-01T00:28:17;19.33;;;9.63;;
16998;SDS011;10211;49.476;11.010;2023-03-01T00:30:44;14.83;;;8.77;;
16998;SDS011;10211;49.476;11.010;2023-03-01T00:33:12;15.13;;;9.00;;
16998;SDS011;10211;49.476;11.010;2023-03-01T00:35:39;15.43;;;8.70;;
16998;SDS011;10211;49.476;11.010;2023-03-01T00:38:06;16.17;;;9.23;;
16998;SDS011;10211;49.476;11.010;2023-03-01T00:40:34;14.93;;;9.03;;
16998;SDS011;10211;49.476;11.010;2023-03-01T00:43:01;17.63;;;9.93;;
16998;SDS011;10211;49.476;11.010;2023-03-01T00:45:30;16.23;;;9.17;;
16998;SDS011;10211;49.476;11.010;2023-03-01T00:47:58;16.00;;;9.30;;
16998;SDS011;10211;49.476;11.010;2023-03-01T00:50:25;17.60;;;10.20;;
16998;SDS011;10211;49.476;11.010;2023-03-01T00:52:52;16.33;;;8.97;;
16998;SDS011;10211;49.476;11.010;2023-03-01T00:55:19;18.30;;;10.00;;
16998;SDS011;10211;49.476;11.010;2023-03-01T00:57:46;16.37;;;9.40;;
16998;SDS011;10211;49.476;11.010;2023-03-01T01:00:13;17.30;;;9.83;;
16998;SDS011;10211;49.476;11.010;2023-03-01T01:02:42;17.77;;;9.30;;
16998;SDS011;10211;49.476;11.010;2023-03-01T01:05:09;16.43;;;9.57;;
16998;SDS011;10211;49.476;11.010;2023-03-01T01:07:36;19.27;;;10.07;;
16998;SDS011;10211;49.476;11.010;2023-03-01T01:10:03;17.57;;;10.17;;
16998;SDS011;10211;49.476;11.010;2023-03-01T01:12:31;18.80;;;11.23;;
16998;SDS011;10211;49.476;11.010;2023-03-01T01:14:58;15.73;;;10.10;;
16998;SDS011;10211;49.476;11.010;2023-03-01T01:17:25;19.67;;;11.17;;
16998;SDS011;10211;49.476;11.010;2023-03-01T01:19:53;13.90;;;10.07;;
16998;SDS011;10211;49.476;11.010;2023-03-01T01:22:20;15.10;;;9.47;;
16998;SDS011;10211;49.476;11.010;2023-03-01T01:24:46;18.00;;;9.67;;
16998;SDS011;10211;49.476;11.010;2023-03-01T01:27:13;16.00;;;9.03;;
16998;SDS011;10211;49.476;11.010;2023-03-01T01:29:40;13.90;;;9.13;;
16998;SDS011;10211;49.476;11.010;2023-03-01T01:32:07;17.10;;;9.63;;
16998;SDS011;10211;49.476;11.010;2023-03-01T01:34:33;17.83;;;10.40;;
16998;SDS011;10211;49.476;11.010;2023-03-01T01:37:01;14.50;;;9.63;;
16998;SDS011;10211;49.476;11.010;2023-03-01T01:39:28;15.47;;;9.73;;
16998;SDS011;10211;49.476;11.010;2023-03-01T01:41:55;16.13;;;10.20;;
16998;SDS011;10211;49.476;11.010;2023-03-01T01:44:23;16.43;;;9.40;;
16998;SDS011;10211;49.476;11.010;2023-03-01T01:46:52;15.80;;;9.90;;
16998;SDS011;10211;49.476;11.010;2023-03-01T01:49:25;17.40;;;9.70;;
16998;SDS011;10211;49.476;11.010;2023-03-01T01:51:59;17.67;;;9.13;;
16998;SDS011;10211;49.476;11.010;2023-03-01T01:54:31;14.97;;;9.10;;
16998;SDS011;10211;49.476;11.010;2023-03-01T01:57:07;14.93;;;9.23;;
16998;SDS011;10211;49.476;11.010;2023-03-01T01:59:39;14.60;;;9.13;;
16998;SDS011;10211;49.476;11.010;2023-03-01T02:02:11;16.00;;;9.50;;
16998;SDS011;10211;49.476;11.010;2023-03-01T02:04:39;18.93;;;9.67;;
16998;SDS011;10211;49.476;11.010;2023-03-01T02:07:09;15.40;;;9.00;;
16998;SDS011;10211;49.476;11.010;2023-03-01T02:09:41;16.17;;;9.30;;
16998;SDS011;10211;49.476;11.010;2023-03-01T02:12:12;18.50;;;10.20;;
16998;SDS011;10211;49.476;11.010;2023-03-01T02:14:43;15.63;;;8.97;;
16998;SDS011;10211;49.476;11.010;2023-03-01T02:17:10;17.27;;;9.53;;
16998;SDS011;10211;49.476;11.010;2023-03-01T02:19:41;15.77;;;9.67;;
16998;SDS011;10211;49.476;11.010;2023-03-01T02:22:20;16.57;;;9.57;;
16998;SDS011;10211;49.476;11.010;2023-03-01T02:24:53;24.63;;;10.77;;
16998;SDS011;10211;49.476;11.010;2023-03-01T02:27:30;17.10;;;9.80;;
16998;SDS011;10211;49.476;11.010;2023-03-01T02:30:04;17.67;;;9.17;;
16998;SDS011;10211;49.476;11.010;2023-03-01T02:32:32;20.00;;;11.07;;
16998;SDS011;10211;49.476;11.010;2023-03-01T02:34:59;13.03;;;8.10;;
16998;SDS011;10211;49.476;11.010;2023-03-01T02:37:27;15.03;;;10.00;;
16998;SDS011;10211;49.476;11.010;2023-03-01T02:39:55;16.77;;;10.23;;
16998;SDS011;10211;49.476;11.010;2023-03-01T02:42:26;17.90;;;10.33;;
16998;SDS011;10211;49.476;11.010;2023-03-01T02:44:56;19.23;;;10.47;;
16998;SDS011;10211;49.476;11.010;2023-03-01T02:47:24;19.50;;;11.13;;
16998;SDS011;10211;49.476;11.010;2023-03-01T02:49:51;18.60;;;10.07;;
16998;SDS011;10211;49.476;11.010;2023-03-01T02:52:27;20.17;;;10.47;;
16998;SDS011;10211;49.476;11.010;2023-03-01T02:55:06;17.60;;;10.57;;
16998;SDS011;10211;49.476;11.010;2023-03-01T02:57:37;16.63;;;9.57;;
16998;SDS011;10211;49.476;11.010;2023-03-01T03:00:08;17.80;;;10.30;;
16998;SDS011;10211;49.476;11.010;2023-03-01T03:02:45;18.13;;;11.10;;
16998;SDS011;10211;49.476;11.010;2023-03-01T03:05:13;15.17;;;9.37;;
16998;SDS011;10211;49.476;11.010;2023-03-01T03:07:42;20.00;;;11.33;;
16998;SDS011;10211;49.476;11.010;2023-03-01T03:10:11;19.67;;;10.13;;
16998;SDS011;10211;49.476;11.010;2023-03-01T03:12:40;20.37;;;10.60;;
16998;SDS011;10211;49.476;11.010;2023-03-01T03:15:07;16.80;;;10.20;;
16998;SDS011;10211;49.476;11.010;2023-03-01T03:17:37;16.97;;;10.07;;
16998;SDS011;10211;49.476;11.010;2023-03-01T03:20:07;16.83;;;10.50;;
16998;SDS011;10211;49.476;11.010;2023-03-01T03:22:37;15.63;;;9.27;;
16998;SDS011;10211;49.476;11.010;2023-03-01T03:25:05;18.10;;;10.63;;
16998;SDS011;10211;49.476;11.010;2023-03-01T03:27:35;16.27;;;9.30;;
16998;SDS011;10211;49.476;11.010;2023-03-01T03:30:02;16.47;;;9.83;;
16998;SDS011;10211;49.476;11.010;2023-03-01T03:32:33;17.37;;;10.07;;
16998;SDS011;10211;49.476;11.010;2023-03-01T03:35:00;17.63;;;9.93;;
16998;SDS011;10211;49.476;11.010;2023-03-01T03:37:29;16.77;;;10.40;;
16998;SDS011;10211;49.476;11.010;2023-03-01T03:40:13;19.90;;;10.13;;
16998;SDS011;10211;49.476;11.010;2023-03-01T03:42:40;17.17;;;9.17;;
16998;SDS011;10211;49.476;11.010;2023-03-01T03:45:07;16.83;;;10.13;;
16998;SDS011;10211;49.476;11.010;2023-03-01T03:47:34;18.20;;;10.03;;
16998;SDS011;10211;49.476;11.010;2023-03-01T03:50:01;17.90;;;10.77;;
16998;SDS011;10211;49.476;11.010;2023-03-01T03:52:29;14.93;;;10.03;;
16998;SDS011;10211;49.476;11.010;2023-03-01T03:54:56;20.23;;;10.23;;
16998;SDS011;10211;49.476;11.010;2023-03-01T03:57:23;18.80;;;10.77;;
16998;SDS011;10211;49.476;11.010;2023-03-01T03:59:49;17.37;;;10.53;;
16998;SDS011;10211;49.476;11.010;2023-03-01T04:02:16;17.57;;;10.27;;
16998;SDS011;10211;49.476;11.010;2023-03-01T04:04:47;20.20;;;9.90;;
16998;SDS011;10211;49.476;11.010;2023-03-01T04:07:14;15.13;;;9.67;;
16998;SDS011;10211;49.476;11.010;2023-03-01T04:09:43;21.97;;;10.63;;
16998;SDS011;10211;49.476;11.010;2023-03-01T04:12:10;19.97;;;10.50;;
16998;SDS011;10211;49.476;11.010;2023-03-01T04:14:36;20.00;;;10.10;;
16998;SDS011;10211;49.476;11.010;2023-03-01T04:17:03;22.13;;;10.90;;
16998;SDS011;10211;49.476;11.010;2023-03-01T04:19:30;15.63;;;9.07;;
16998;SDS011;10211;49.476;11.010;2023-03-01T04:22:01;21.30;;;10.47;;
16998;SDS011;10211;49.476;11.010;2023-03-01T04:24:32;16.27;;;10.20;;
16998;SDS011;10211;49.476;11.010;2023-03-01T04:27:00;18.00;;;10.40;;
16998;SDS011;10211;49.476;11.010;2023-03-01T04:29:27;14.77;;;9.23;;
16998;SDS011;10211;49.476;11.010;2023-03-01T04:31:54;18.13;;;10.70;;
16998;SDS011;10211;49.476;11.010;2023-03-01T04:34:20;15.73;;;10.43;;
16998;SDS011;10211;49.476;11.010;2023-03-01T04:36:47;22.03;;;11.70;;
16998;SDS011;10211;49.476;11.010;2023-03-01T04:39:14;25.80;;;12.77;;
16998;SDS011;10211;49.476;11.010;2023-03-01T04:41:41;31.33;;;14.40;;
16998;SDS011;10211;49.476;11.010;2023-03-01T04:44:09;33.90;;;16.17;;
16998;SDS011;10211;49.476;11.010;2023-03-01T04:46:36;44.73;;;18.53;;
16998;SDS011;10211;49.476;11.010;2023-03-01T04:49:03;39.87;;;18.87;;
16998;SDS011;10211;49.476;11.010;2023-03-01T04:51:30;25.77;;;15.37;;
16998;SDS011;10211;49.476;11.010;2023-03-01T04:53:58;26.10;;;14.20;;
16998;SDS011;10211;49.476;11.010;2023-03-01T04:56:25;23.30;;;12.63;;
16998;SDS011;10211;49.476;11.010;2023-03-01T04:58:53;20.17;;;11.10;;
16998;SDS011;10211;49.476;11.010;2023-03-01T05:01:21;22.57;;;12.10;;
16998;SDS011;10211;49.476;11.010;2023-03-01T05:03:48;23.43;;;10.60;;
16998;SDS011;10211;49.476;11.010;2023-03-01T05:06:17;19.07;;;10.37;;
16998;SDS011;10211;49.476;11.010;2023-03-01T05:08:45;17.70;;;9.17;;
16998;SDS011;10211;49.476;11.010;2023-03-01T05:11:12;19.63;;;11.47;;
16998;SDS011;10211;49.476;11.010;2023-03-01T05:13:38;19.83;;;10.63;;
16998;SDS011;10211;49.476;11.010;2023-03-01T05:16:06;17.63;;;10.07;;
16998;SDS011;10211;49.476;11.010;2023-03-01T05:18:37;15.97;;;9.90;;
16998;SDS011;10211;49.476;11.010;2023-03-01T05:21:05;18.03;;;10.47;;
16998;SDS011;10211;49.476;11.010;2023-03-01T05:23:33;18.87;;;10.70;;
16998;SDS011;10211;49.476;11.010;2023-03-01T05:26:01;21.17;;;12.17;;
16998;SDS011;10211;49.476;11.010;2023-03-01T05:28:29;16.20;;;10.37;;
16998;SDS011;10211;49.476;11.010;2023-03-01T05:30:56;19.23;;;12.10;;
16998;SDS011;10211;49.476;11.010;2023-03-01T05:33:24;17.87;;;11.90;;
16998;SDS011;10211;49.476;11.010;2023-03-01T05:35:53;23.10;;;11.73;;
16998;SDS011;10211;49.476;11.010;2023-03-01T05:38:20;19.47;;;12.57;;
16998;SDS011;10211;49.476;11.010;2023-03-01T05:40:48;25.93;;;13.73;;
16998;SDS011;10211;49.476;11.010;2023-03-01T05:43:15;20.57;;;11.93;;
16998;SDS011;10211;49.476;11.010;2023-03-01T05:45:43;28.17;;;13.57;;
16998;SDS011;10211;49.476;11.010;2023-03-01T05:48:10;20.83;;;11.70;;
16998;SDS011;10211;49.476;11.010;2023-03-01T05:50:39;19.97;;;11.07;;
16998;SDS011;10211;49.476;11.010;2023-03-01T05:53:09;16.67;;;9.90;;
16998;SDS011;10211;49.476;11.010;2023-03-01T05:55:37;25.83;;;10.57;;
16998;SDS011;10211;49.476;11.010;2023-03-01T05:58:05;16.00;;;10.57;;
16998;SDS011;10211;49.476;11.010;2023-03-01T06:00:33;19.50;;;10.43;;
16998;SDS011;10211;49.476;11.010;2023-03-01T06:03:01;15.50;;;9.73;;
16998;SDS011;10211;49.476;11.010;2023-03-01T06:05:28;18.53;;;9.87;;
16998;SDS011;10211;49.476;11.010;2023-03-01T06:07:58;19.17;;;11.23;;
16998;SDS011;10211;49.476;11.010;2023-03-01T06:10:26;21.40;;;11.23;;
16998;SDS011;10211;49.476;11.010;2023-03-01T06:12:54;19.20;;;10.80;;
16998;SDS011;10211;49.476;11.010;2023-03-01T06:15:21;24.73;;;11.63;;
16998;SDS011;10211;49.476;11.010;2023-03-01T06:17:48;22.73;;;12.40;;
16998;SDS011;10211;49.476;11.010;2023-03-01T06:20:16;25.33;;;13.87;;
16998;SDS011;10211;49.476;11.010;2023-03-01T06:22:44;21.23;;;11.77;;
16998;SDS011;10211;49.476;11.010;2023-03-01T06:25:13;19.90;;;12.33;;
16998;SDS011;10211;49.476;11.010;2023-03-01T06:27:43;31.27;;;17.47;;
16998;SDS011;10211;49.476;11.010;2023-03-01T06:30:11;23.20;;;13.53;;
16998;SDS011;10211;49.476;11.010;2023-03-01T06:32:41;36.17;;;20.83;;
16998;SDS011;10211;49.476;11.010;2023-03-01T06:35:08;29.27;;;13.60;;
16998;SDS011;10211;49.476;11.010;2023-03-01T06:37:36;23.23;;;13.37;;
16998;SDS011;10211;49.476;11.010;2023-03-01T06:40:03;26.87;;;16.23;;
16998;SDS011;10211;49.476;11.010;2023-03-01T06:42:33;28.13;;;14.87;;
16998;SDS011;10211;49.476;11.010;2023-03-01T06:45:01;22.97;;;13.10;;
16998;SDS011;10211;49.476;11.010;2023-03-01T06:47:29;22.03;;;12.60;;
16998;SDS011;10211;49.476;11.010;2023-03-01T06:49:55;25.23;;;12.87;;
16998;SDS011;10211;49.476;11.010;2023-03-01T06:52:22;27.43;;;13.30;;
16998;SDS011;10211;49.476;11.010;2023-03-01T06:54:49;29.30;;;16.47;;
16998;SDS011;10211;49.476;11.010;2023-03-01T06:57:15;21.60;;;13.20;;
16998;SDS011;10211;49.476;11.010;2023-03-01T06:59:42;35.77;;;20.63;;
16998;SDS011;10211;49.476;11.010;2023-03-01T07:02:11;26.37;;;15.90;;
16998;SDS011;10211;49.476;11.010;2023-03-01T07:04:39;32.90;;;18.93;;
16998;SDS011;10211;49.476;11.010;2023-03-01T07:07:05;28.90;;;17.13;;
16998;SDS011;10211;49.476;11.010;2023-03-01T07:09:32;19.87;;;14.20;;
16998;SDS011;10211;49.476;11.010;2023-03-01T07:11:59;18.33;;;10.87;;
16998;SDS011;10211;49.476;11.010;2023-03-01T07:14:26;19.10;;;11.43;;
16998;SDS011;10211;49.476;11.010;2023-03-01T07:16:53;15.27;;;10.73;;
16998;SDS011;10211;49.476;11.010;2023-03-01T07:19:22;14.40;;;9.87;;
16998;SDS011;10211;49.476;11.010;2023-03-01T07:21:49;15.13;;;10.17;;
16998;SDS011;10211;49.476;11.010;2023-03-01T07:24:16;35.67;;;24.40;;
16998;SDS011;10211;49.476;11.010;2023-03-01T07:26:42;20.63;;;11.77;;
16998;SDS011;10211;49.476;11.010;2023-03-01T07:29:09;30.13;;;14.03;;
16998;SDS011;10211;49.476;11.010;2023-03-01T07:31:37;19.60;;;11.00;;
16998;SDS011;10211;49.476;11.010;2023-03-01T07:34:03;23.60;;;11.67;;
16998;SDS011;10211;49.476;11.010;2023-03-01T07:36:32;15.50;;;9.70;;
16998;SDS011;10211;49.476;11.010;2023-03-01T07:38:58;15.33;;;10.20;;
16998;SDS011;10211;49.476;11.010;2023-03-01T07:41:27;14.40;;;9.77;;
16998;SDS011;10211;49.476;11.010;2023-03-01T07:43:54;17.33;;;10.20;;
16998;SDS011;10211;49.476;11.010;2023-03-01T07:46:21;14.50;;;9.47;;
16998;SDS011;10211;49.476;11.010;2023-03-01T07:48:50;18.53;;;11.37;;
16998;SDS011;10211;49.476;11.010;2023-03-01T07:51:16;16.20;;;8.90;;
16998;SDS011;10211;49.476;11.010;2023-03-01T07:53:46;16.37;;;10.43;;
16998;SDS011;10211;49.476;11.010;2023-03-01T07:56:14;18.77;;;11.03;;
16998;SDS011;10211;49.476;11.010;2023-03-01T07:58:42;15.63;;;11.07;;
16998;SDS011;10211;49.476;11.010;2023-03-01T08:01:10;18.83;;;10.90;;
16998;SDS011;10211;49.476;11.010;2023-03-01T08:03:38;16.47;;;10.73;;
16998;SDS011;10211;49.476;11.010;2023-03-01T08:06:06;17.23;;;12.07;;
16998;SDS011;10211;49.476;11.010;2023-03-01T08:08:34;18.17;;;11.70;;
16998;SDS011;10211;49.476;11.010;2023-03-01T08:11:03;14.53;;;11.33;;
16998;SDS011;10211;49.476;11.010;2023-03-01T08:13:31;18.47;;;11.37;;
16998;SDS011;10211;49.476;11.010;2023-03-01T08:16:00;15.43;;;10.43;;
16998;SDS011;10211;49.476;11.010;2023-03-01T08:18:28;11.87;;;10.67;;
16998;SDS011;10211;49.476;11.010;2023-03-01T08:20:54;13.43;;;10.03;;
16998;SDS011;10211;49.476;11.010;2023-03-01T08:23:21;16.37;;;10.03;;
16998;SDS011;10211;49.476;11.010;2023-03-01T08:25:48;13.23;;;10.97;;
16998;SDS011;10211;49.476;11.010;2023-03-01T08:28:16;13.33;;;11.00;;
16998;SDS011;10211;49.476;11.010;2023-03-01T08:30:43;22.13;;;13.03;;
16998;SDS011;10211;49.476;11.010;2023-03-01T08:33:09;14.00;;;10.57;;
16998;SDS011;10211;49.476;11.010;2023-03-01T08:35:36;14.50;;;10.77;;
16998;SDS011;10211;49.476;11.010;2023-03-01T08:38:03;14.00;;;10.57;;
16998;SDS011;10211;49.476;11.010;2023-03-01T08:40:29;16.50;;;11.30;;
16998;SDS011;10211;49.476;11.010;2023-03-01T08:42:57;13.67;;;11.10;;
16998;SDS011;10211;49.476;11.010;2023-03-01T08:45:25;16.13;;;10.40;;
16998;SDS011;10211;49.476;11.010;2023-03-01T08:47:52;19.57;;;11.20;;
16998;SDS011;10211;49.476;11.010;2023-03-01T08:50:19;15.83;;;10.10;;
16998;SDS011;10211;49.476;11.010;2023-03-01T08:52:46;15.93;;;9.87;;
16998;SDS011;10211;49.476;11.010;2023-03-01T08:55:12;14.40;;;10.33;;
16998;SDS011;10211;49.476;11.010;2023-03-01T08:57:41;15.07;;;10.77;;
16998;SDS011;10211;49.476;11.010;2023-03-01T09:00:08;17.40;;;10.83;;
16998;SDS011;10211;49.476;11.010;2023-03-01T09:02:39;15.83;;;10.63;;
16998;SDS011;10211;49.476;11.010;2023-03-01T09:05:06;15.97;;;10.00;;
16998;SDS011;10211;49.476;11.010;2023-03-01T09:07:33;15.73;;;9.60;;
16998;SDS011;10211;49.476;11.010;2023-03-01T09:10:00;18.13;;;10.30;;
16998;SDS011;10211;49.476;11.010;2023-03-01T09:12:26;17.23;;;10.53;;
16998;SDS011;10211;49.476;11.010;2023-03-01T09:14:53;16.77;;;10.63;;
16998;SDS011;10211;49.476;11.010;2023-03-01T09:17:20;17.23;;;10.83;;
16998;SDS011;10211;49.476;11.010;2023-03-01T09:19:48;16.50;;;10.57;;
16998;SDS011;10211;49.476;11.010;2023-03-01T09:22:15;14.47;;;10.17;;
16998;SDS011;10211;49.476;11.010;2023-03-01T09:24:42;17.97;;;9.70;;
16998;SDS011;10211;49.476;11.010;2023-03-01T09:27:08;15.77;;;9.60;;
16998;SDS011;10211;49.476;11.010;2023-03-01T09:29:36;18.67;;;9.50;;
16998;SDS011;10211;49.476;11.010;2023-03-01T09:32:03;16.70;;;9.27;;
16998;SDS011;10211;49.476;11.010;2023-03-01T09:34:30;14.40;;;9.97;;
16998;SDS011;10211;49.476;11.010;2023-03-01T09:37:18;18.90;;;10.03;;
16998;SDS011;10211;49.476;11.010;2023-03-01T09:39:45;13.73;;;9.53;;
16998;SDS011;10211;49.476;11.010;2023-03-01T09:42:12;16.40;;;9.97;;
16998;SDS011;10211;49.476;11.010;2023-03-01T09:44:42;14.20;;;9.80;;
16998;SDS011;10211;49.476;11.010;2023-03-01T09:47:16;17.53;;;9.83;;
16998;SDS011;10211;49.476;11.010;2023-03-01T09:49:45;16.47;;;9.80;;
16998;SDS011;10211;49.476;11.010;2023-03-01T09:52:21;14.23;;;9.20;;
16998;SDS011;10211;49.476;11.010;2023-03-01T09:54:55;16.67;;;9.93;;
16998;SDS011;10211;49.476;11.010;2023-03-01T09:57:26;17.17;;;9.30;;
16998;SDS011;10211;49.476;11.010;2023-03-01T10:00:03;12.20;;;8.43;;
16998;SDS011;10211;49.476;11.010;2023-03-01T10:02:41;13.97;;;9.07;;
16998;SDS011;10211;49.476;11.010;2023-03-01T10:05:15;17.47;;;9.37;;
16998;SDS011;10211;49.476;11.010;2023-03-01T10:07:58;19.70;;;10.03;;
16998;SDS011;10211;49.476;11.010;2023-03-01T10:10:39;14.10;;;8.60;;
16998;SDS011;10211;49.476;11.010;2023-03-01T10:13:10;11.77;;;8.57;;
16998;SDS011;10211;49.476;11.010;2023-03-01T10:15:43;11.80;;;8.50;;
16998;SDS011;10211;49.476;11.010;2023-03-01T10:18:14;17.13;;;9.50;;
16998;SDS011;10211;49.476;11.010;2023-03-01T10:20:46;12.67;;;9.03;;
16998;SDS011;10211;49.476;11.010;2023-03-01T10:23:19;14.83;;;9.17;;
16998;SDS011;10211;49.476;11.010;2023-03-01T10:25:47;15.90;;;9.43;;
16998;SDS011;10211;49.476;11.010;2023-03-01T10:28:40;14.07;;;8.07;;
16998;SDS011;10211;49.476;11.010;2023-03-01T10:31:17;18.77;;;9.83;;
16998;SDS011;10211;49.476;11.010;2023-03-01T10:33:52;21.10;;;14.27;;
16998;SDS011;10211;49.476;11.010;2023-03-01T10:36:20;15.73;;;10.83;;
16998;SDS011;10211;49.476;11.010;2023-03-01T10:38:49;13.87;;;9.57;;
16998;SDS011;10211;49.476;11.010;2023-03-01T10:41:19;14.90;;;9.43;;
16998;SDS011;10211;49.476;11.010;2023-03-01T10:43:49;11.20;;;8.27;;
16998;SDS011;10211;49.476;11.010;2023-03-01T10:46:26;14.43;;;9.50;;
16998;SDS011;10211;49.476;11.010;2023-03-01T10:51:51;14.57;;;9.53;;
16998;SDS011;10211;49.476;11.010;2023-03-01T10:54:21;14.47;;;10.33;;
16998;SDS011;10211;49.476;11.010;2023-03-01T10:56:51;12.00;;;9.23;;
16998;SDS011;10211;49.476;11.010;2023-03-01T10:59:26;11.02;;;8.93;;
16998;SDS011;10211;49.476;11.010;2023-03-01T11:02:09;17.25;;;9.90;;
16998;SDS011;10211;49.476;11.010;2023-03-01T11:04:52;12.95;;;9.10;;
16998;SDS011;10211;49.476;11.010;2023-03-01T11:07:24;13.80;;;9.05;;
16998;SDS011;10211;49.476;11.010;2023-03-01T11:09:54;9.73;;;8.73;;
16998;SDS011;10211;49.476;11.010;2023-03-01T11:12:21;11.63;;;9.13;;
16998;SDS011;10211;49.476;11.010;2023-03-01T11:14:49;12.13;;;9.75;;
16998;SDS011;10211;49.476;11.010;2023-03-01T11:17:21;11.35;;;9.48;;
16998;SDS011;10211;49.476;11.010;2023-03-01T11:20:05;10.48;;;9.07;;
16998;SDS011;10211;49.476;11.010;2023-03-01T11:22:43;10.10;;;8.63;;
16998;SDS011;10211;49.476;11.010;2023-03-01T11:25:14;10.55;;;8.75;;
16998;SDS011;10211;49.476;11.010;2023-03-01T11:27:44;11.55;;;9.05;;
16998;SDS011;10211;49.476;11.010;2023-03-01T11:32:45;10.73;;;8.35;;
16998;SDS011;10211;49.476;11.010;2023-03-01T11:35:17;10.55;;;8.75;;
16998;SDS011;10211;49.476;11.010;2023-03-01T11:37:50;12.65;;;8.98;;
16998;SDS011;10211;49.476;11.010;2023-03-01T11:40:27;11.05;;;8.90;;
16998;SDS011;10211;49.476;11.010;2023-03-01T11:43:05;9.35;;;8.13;;
16998;SDS011;10211;49.476;11.010;2023-03-01T11:45:42;11.98;;;10.25;;
16998;SDS011;10211;49.476;11.010;2023-03-01T11:48:24;10.35;;;8.38;;
16998;SDS011;10211;49.476;11.010;2023-03-01T11:51:05;9.75;;;8.43;;
16998;SDS011;10211;49.476;11.010;2023-03-01T11:53:41;9.13;;;8.18;;
16998;SDS011;10211;49.476;11.010;2023-03-01T11:56:23;10.38;;;8.70;;
16998;SDS011;10211;49.476;11.010;2023-03-01T12:01:56;9.32;;;7.90;;
16998;SDS011;10211;49.476;11.010;2023-03-01T12:04:43;13.00;;;8.63;;
16998;SDS011;10211;49.476;11.010;2023-03-01T12:07:30;12.85;;;8.77;;
16998;SDS011;10211;49.476;11.010;2023-03-01T12:10:22;11.85;;;8.32;;
16998;SDS011;10211;49.476;11.010;2023-03-01T12:12:56;10.35;;;7.78;;
16998;SDS011;10211;49.476;11.010;2023-03-01T12:15:45;9.60;;;8.10;;
16998;SDS011;10211;49.476;11.010;2023-03-01T12:18:29;11.77;;;8.53;;
16998;SDS011;10211;49.476;11.010;2023-03-01T12:21:11;10.80;;;8.00;;
16998;SDS011;10211;49.476;11.010;2023-03-01T12:23:52;12.70;;;8.30;;
16998;SDS011;10211;49.476;11.010;2023-03-01T12:26:48;13.10;;;8.23;;
16998;SDS011;10211;49.476;11.010;2023-03-01T12:29:28;14.00;;;8.83;;
16998;SDS011;10211;49.476;11.010;2023-03-01T12:32:21;9.57;;;7.30;;
16998;SDS011;10211;49.476;11.010;2023-03-01T12:35:02;9.67;;;7.83;;
16998;SDS011;10211;49.476;11.010;2023-03-01T12:37:42;11.97;;;7.50;;
16998;SDS011;10211;49.476;11.010;2023-03-01T12:40:30;9.37;;;7.40;;
16998;SDS011;10211;49.476;11.010;2023-03-01T12:43:08;9.17;;;7.27;;
16998;SDS011;10211;49.476;11.010;2023-03-01T12:45:47;12.97;;;8.10;;
16998;SDS011;10211;49.476;11.010;2023-03-01T12:48:28;13.07;;;8.23;;
16998;SDS011;10211;49.476;11.010;2023-03-01T12:51:06;13.00;;;7.53;;
16998;SDS011;10211;49.476;11.010;2023-03-01T12:53:39;11.73;;;6.87;;
16998;SDS011;10211;49.476;11.010;2023-03-01T12:56:08;12.13;;;7.57;;
16998;SDS011;10211;49.476;11.010;2023-03-01T12:58:39;13.07;;;8.23;;
16998;SDS011;10211;49.476;11.010;2023-03-01T13:01:16;12.63;;;7.60;;
16998;SDS011;10211;49.476;11.010;2023-03-01T13:03:55;8.57;;;7.23;;
16998;SDS011;10211;49.476;11.010;2023-03-01T13:06:32;10.60;;;8.23;;
16998;SDS011;10211;49.476;11.010;2023-03-01T13:09:08;9.20;;;6.63;;
16998;SDS011;10211;49.476;11.010;2023-03-01T13:11:41;13.47;;;8.03;;
16998;SDS011;10211;49.476;11.010;2023-03-01T13:17:20;12.93;;;8.27;;
16998;SDS011;10211;49.476;11.010;2023-03-01T13:19:58;11.40;;;8.07;;
16998;SDS011;10211;49.476;11.010;2023-03-01T13:22:26;12.27;;;8.20;;
16998;SDS011;10211;49.476;11.010;2023-03-01T13:25:10;14.80;;;9.13;;
16998;SDS011;10211;49.476;11.010;2023-03-01T13:27:39;13.93;;;8.53;;
16998;SDS011;10211;49.476;11.010;2023-03-01T13:30:38;11.47;;;8.47;;
16998;SDS011;10211;49.476;11.010;2023-03-01T13:36:09;11.43;;;7.43;;
16998;SDS011;10211;49.476;11.010;2023-03-01T13:38:39;9.10;;;6.93;;
16998;SDS011;10211;49.476;11.010;2023-03-01T13:41:12;10.57;;;8.07;;
16998;SDS011;10211;49.476;11.010;2023-03-01T13:43:40;12.93;;;7.80;;
16998;SDS011;10211;49.476;11.010;2023-03-01T13:46:09;13.80;;;8.43;;
16998;SDS011;10211;49.476;11.010;2023-03-01T13:48:38;13.60;;;7.60;;
16998;SDS011;10211;49.476;11.010;2023-03-01T13:51:09;12.50;;;8.23;;
16998;SDS011;10211;49.476;11.010;2023-03-01T13:53:39;12.27;;;8.13;;
16998;SDS011;10211;49.476;11.010;2023-03-01T13:56:09;11.53;;;7.73;;
16998;SDS011;10211;49.476;11.010;2023-03-01T13:58:46;10.60;;;8.37;;
16998;SDS011;10211;49.476;11.010;2023-03-01T14:01:21;11.90;;;7.57;;
16998;SDS011;10211;49.476;11.010;2023-03-01T14:03:50;12.00;;;8.07;;
16998;SDS011;10211;49.476;11.010;2023-03-01T14:06:20;13.43;;;8.73;;
16998;SDS011;10211;49.476;11.010;2023-03-01T14:08:50;12.80;;;7.47;;
16998;SDS011;10211;49.476;11.010;2023-03-01T14:11:35;13.47;;;8.13;;
16998;SDS011;10211;49.476;11.010;2023-03-01T14:17:27;9.83;;;7.77;;
16998;SDS011;10211;49.476;11.010;2023-03-01T14:20:17;12.67;;;7.43;;
16998;SDS011;10211;49.476;11.010;2023-03-01T14:22:47;13.63;;;8.27;;
16998;SDS011;10211;49.476;11.010;2023-03-01T14:25:18;12.33;;;7.67;;
16998;SDS011;10211;49.476;11.010;2023-03-01T14:27:51;13.37;;;8.17;;
16998;SDS011;10211;49.476;11.010;2023-03-01T14:30:22;10.83;;;7.97;;
16998;SDS011;10211;49.476;11.010;2023-03-01T14:32:52;11.30;;;7.57;;
16998;SDS011;10211;49.476;11.010;2023-03-01T14:35:20;11.33;;;6.97;;
16998;SDS011;10211;49.476;11.010;2023-03-01T14:37:50;14.57;;;7.50;;
16998;SDS011;10211;49.476;11.010;2023-03-01T14:40:21;11.40;;;7.33;;
16998;SDS011;10211;49.476;11.010;2023-03-01T14:42:49;10.67;;;8.03;;
16998;SDS011;10211;49.476;11.010;2023-03-01T14:45:17;11.87;;;7.93;;
16998;SDS011;10211;49.476;11.010;2023-03-01T14:47:45;11.70;;;7.87;;
16998;SDS011;10211;49.476;11.010;2023-03-01T14:50:15;13.23;;;8.43;;
16998;SDS011;10211;49.476;11.010;2023-03-01T14:52:48;11.53;;;8.07;;